West Lexington, Virginia
Current Conditions -  °F | °C
As of 8:15 AM on Saturday 25 Oct 2014 (Local Time) from KHSP Reporting Station
Clear Clear  
Wind Chill:   Ceiling: Unl
Heat Index:   Visibility: 10mi
Dew Point:   Wind: 10mph
Humidity: 72%   Direction: 280°W
Pressure: 30.01"   Gusts: NA
Location:  37.7866°N, 79.5193°W
Report Text: KHSP 251215Z AUTO 28009KT 10SM CLR 07/02 A3001 RMK AO2 T00650017
Loading
Personal Weather Stations






























Interactive Weather Map
Tropical Storm Tracking
New forecast layout! Learn more

10-Day Weather Forecast

Advertisements
Track Severe Weather on mobile